Time;durP1;ratioP1;P1;durP2;ratioP2;P2;SDS_P1;SDS_P2;PMS_P1;PMS_P2;Temp;Humidity;BMP_temperature;BMP_pressure;BME280_temperature;BME280_humidity;BME280_pressure;Samples;Min_cycle;Max_cycle;Signal;HPM_P1;HPM_P2
2021/05/27 00:00:08;;;;;;;;;;;12.60;61.90;;;;;;5112330;28;20045;-71
2021/05/27 00:02:34;;;;;;;5.47;2.22;;;12.50;61.00;;;;;;5111543;28;20367;-72
2021/05/27 00:05:01;;;;;;;;;;;12.50;60.90;;;;;;5114106;28;20047;-71
2021/05/27 00:07:27;;;;;;;10.30;3.55;;;12.50;60.40;;;;;;5115463;28;19950;-71
2021/05/27 00:09:53;;;;;;;12.27;3.60;;;12.40;61.40;;;;;;5115543;28;20043;-71
2021/05/27 00:12:19;;;;;;;;;;;12.40;61.70;;;;;;5117361;28;20032;-71
2021/05/27 00:14:51;;;;;;;13.02;3.97;;;12.40;60.50;;;;;;5115636;28;19962;-71
2021/05/27 00:17:18;;;;;;;13.55;5.43;;;12.40;61.70;;;;;;5115586;28;20027;-71
2021/05/27 00:19:44;;;;;;;21.77;8.68;;;12.30;61.80;;;;;;5098562;28;20092;-72
2021/05/27 00:22:11;;;;;;;23.38;9.68;;;12.30;61.40;;;;;;5115203;28;20106;-72
2021/05/27 00:24:37;;;;;;;14.05;7.10;;;12.30;62.10;;;;;;5115281;28;20089;-71
2021/05/27 00:27:05;;;;;;;18.90;7.47;;;12.30;62.30;;;;;;5116529;28;20027;-71
2021/05/27 00:29:33;;;;;;;19.60;7.93;;;12.30;62.40;;;;;;5115392;28;20042;-72
2021/05/27 00:31:59;;;;;;;19.70;7.85;;;12.20;62.30;;;;;;5115128;28;20086;-72
2021/05/27 00:34:26;;;;;;;12.13;5.82;;;12.20;62.00;;;;;;5115261;28;20039;-71
2021/05/27 00:36:52;;;;;;;9.60;4.03;;;12.20;62.90;;;;;;5115186;28;20070;-71
2021/05/27 00:39:19;;;;;;;9.13;3.88;;;12.30;63.20;;;;;;5116034;28;20093;-71
2021/05/27 00:41:45;;;;;;;9.02;3.40;;;12.20;63.20;;;;;;5115077;28;20102;-71
2021/05/27 00:44:30;;;;;;;;;;;12.20;63.20;;;;;;5098423;28;20151;-71
2021/05/27 00:47:17;;;;;;;11.68;2.97;;;12.20;62.30;;;;;;5114874;28;19972;-72
2021/05/27 00:49:44;;;;;;;7.90;2.72;;;12.20;63.00;;;;;;5115132;28;20066;-71
2021/05/27 00:52:12;;;;;;;8.32;2.65;;;12.10;63.20;;;;;;5116119;28;20632;-71
2021/05/27 00:54:38;;;;;;;7.15;2.13;;;12.10;62.80;;;;;;5116269;28;20040;-72
2021/05/27 00:57:08;;;;;;;;;;;12.10;63.60;;;;;;5115230;28;20043;-70
2021/05/27 00:59:34;;;;;;;7.20;2.17;;;12.10;62.80;;;;;;5114851;28;19920;-71
2021/05/27 01:02:02;;;;;;;7.55;2.60;;;12.00;63.20;;;;;;5131693;27;20450;-72
2021/05/27 01:04:28;;;;;;;8.38;2.20;;;12.00;63.60;;;;;;5114662;28;20065;-71
2021/05/27 01:06:54;;;;;;;3.92;1.92;;;12.00;63.90;;;;;;5115851;28;20077;-71
2021/05/27 01:09:21;;;;;;;5.00;2.00;;;12.00;63.90;;;;;;5114266;28;20051;-71
2021/05/27 01:11:47;;;;;;;;;;;12.00;64.10;;;;;;5116351;28;20031;-71
2021/05/27 01:17:16;;;;;;;4.55;1.90;;;11.90;63.90;;;;;;5113522;28;20035;-72
2021/05/27 01:19:42;;;;;;;5.45;2.45;;;11.90;64.00;;;;;;5114446;28;20035;-72
2021/05/27 01:22:09;;;;;;;5.13;1.88;;;11.90;64.30;;;;;;5114287;28;20107;-71
2021/05/27 01:24:35;;;;;;;;;;;11.90;64.40;;;;;;5114801;28;20062;-70
2021/05/27 01:27:01;;;;;;;5.47;1.88;;;11.80;63.60;;;;;;5097037;28;20422;-70
2021/05/27 01:29:27;;;;;;;;;;;11.80;64.00;;;;;;5116106;28;20036;-71
2021/05/27 01:31:53;;;;;;;4.80;2.08;;;11.70;63.80;;;;;;5115303;28;19916;-71
2021/05/27 01:34:19;;;;;;;;;;;11.70;64.40;;;;;;5115974;28;20035;-71
2021/05/27 01:36:47;;;;;;;5.32;1.77;;;11.70;63.90;;;;;;5114038;28;19933;-71
2021/05/27 01:39:14;;;;;;;4.57;1.70;;;11.60;64.10;;;;;;5113792;28;20116;-72
2021/05/27 01:41:40;;;;;;;8.77;2.13;;;11.60;64.30;;;;;;5113922;28;20028;-71
2021/05/27 01:44:07;;;;;;;6.47;2.08;;;11.60;64.30;;;;;;5114851;28;20043;-71
2021/05/27 01:46:33;;;;;;;;;;;11.50;64.70;;;;;;5114311;28;20039;-71
2021/05/27 01:49:01;;;;;;;5.95;1.70;;;11.50;64.10;;;;;;5115040;28;19926;-71
2021/05/27 01:51:28;;;;;;;4.90;1.58;;;11.40;64.20;;;;;;5130743;27;20032;-71
2021/05/27 01:53:54;;;;;;;4.30;1.77;;;11.40;63.70;;;;;;5114944;28;20067;-71
2021/05/27 01:56:20;;;;;;;;;;;11.50;64.60;;;;;;5115345;28;20100;-71
2021/05/27 01:58:47;;;;;;;5.00;1.50;;;11.40;63.40;;;;;;5113412;28;19926;-71
2021/05/27 02:01:13;;;;;;;;;;;11.30;64.50;;;;;;5115279;28;20317;-71
2021/05/27 02:03:39;;;;;;;5.30;1.30;;;11.30;63.50;;;;;;5113368;28;19969;-71
2021/05/27 02:06:05;;;;;;;;;;;11.20;64.30;;;;;;5113992;28;20652;-72
2021/05/27 02:08:31;;;;;;;3.33;1.42;;;11.10;63.60;;;;;;5114401;28;19926;-71
2021/05/27 02:10:57;;;;;;;4.82;1.33;;;11.10;64.50;;;;;;5114610;28;20055;-71
2021/05/27 02:13:24;;;;;;;2.95;1.27;;;11.20;65.80;;;;;;5114459;28;20468;-71
2021/05/27 02:15:50;;;;;;;;;;;11.30;66.30;;;;;;5114978;28;20043;-71
2021/05/27 02:18:16;;;;;;;3.67;1.27;;;11.30;65.70;;;;;;5114282;28;19951;-71
2021/05/27 02:20:42;;;;;;;;;;;11.30;66.00;;;;;;5113733;28;20107;-70
2021/05/27 02:23:09;;;;;;;5.05;1.30;;;11.30;64.90;;;;;;5113952;28;20346;-71
2021/05/27 02:25:35;;;;;;;;;;;11.30;64.60;;;;;;5113670;28;20453;-72
2021/05/27 02:28:01;;;;;;;3.25;0.95;;;11.30;64.10;;;;;;5113867;28;19912;-71
2021/05/27 02:30:27;;;;;;;3.70;1.30;;;11.20;64.10;;;;;;5112856;28;20130;-71
2021/05/27 02:32:54;;;;;;;2.83;1.10;;;11.20;64.20;;;;;;5112937;28;20058;-71
2021/05/27 02:35:20;;;;;;;5.35;1.45;;;11.20;64.10;;;;;;5114550;28;20078;-71
2021/05/27 02:37:46;;;;;;;8.05;1.60;;;11.20;64.10;;;;;;5114089;28;20031;-71
2021/05/27 02:40:13;;;;;;;3.10;1.35;;;11.10;64.30;;;;;;5114280;28;20067;-71
2021/05/27 02:42:39;;;;;;;5.78;1.63;;;11.10;64.40;;;;;;5112636;28;20080;-71
2021/05/27 02:45:06;;;;;;;4.47;1.60;;;11.10;64.80;;;;;;5112757;28;20059;-71
2021/05/27 02:47:35;;;;;;;4.63;1.45;;;11.10;64.30;;;;;;5113832;28;20085;-72
2021/05/27 02:50:01;;;;;;;3.72;1.60;;;11.10;65.00;;;;;;5112644;28;20084;-71
2021/05/27 02:52:27;;;;;;;4.40;1.30;;;11.10;65.90;;;;;;5112554;28;20058;-70
2021/05/27 02:54:54;;;;;;;4.78;1.40;;;11.00;64.90;;;;;;5112613;28;20442;-71
2021/05/27 02:57:20;;;;;;;4.65;1.35;;;11.00;65.00;;;;;;5113729;28;20070;-71
2021/05/27 02:59:46;;;;;;;2.75;1.17;;;11.00;65.00;;;;;;5112516;28;20067;-71
2021/05/27 03:02:12;;;;;;;4.15;1.52;;;11.00;65.20;;;;;;5112286;28;20383;-72
2021/05/27 03:04:39;;;;;;;5.38;1.55;;;11.00;65.30;;;;;;5113857;28;20522;-70
2021/05/27 03:07:05;;;;;;;3.97;1.38;;;11.00;65.50;;;;;;5112321;28;20549;-71
2021/05/27 03:09:32;;;;;;;4.53;1.67;;;11.00;65.60;;;;;;5113749;28;20058;-71
2021/05/27 03:11:58;;;;;;;4.35;1.40;;;11.00;65.70;;;;;;5112229;28;20456;-71
2021/05/27 03:14:24;;;;;;;;;;;10.90;65.70;;;;;;5112782;28;20042;-71
2021/05/27 03:16:50;;;;;;;7.60;1.65;;;10.90;64.60;;;;;;5113399;28;20307;-70
2021/05/27 03:19:16;;;;;;;;;;;10.90;65.50;;;;;;5114087;28;20051;-71
2021/05/27 03:21:43;;;;;;;3.05;1.30;;;10.90;65.20;;;;;;5112073;28;19916;-72
2021/05/27 03:24:09;;;;;;;;;;;10.80;64.90;;;;;;5112540;28;20364;-71
2021/05/27 03:26:35;;;;;;;5.47;1.70;;;10.80;65.00;;;;;;5112158;28;19916;-71
2021/05/27 03:29:02;;;;;;;4.05;1.73;;;10.80;65.60;;;;;;5111971;28;20032;-71
2021/05/27 03:31:28;;;;;;;6.13;1.60;;;10.70;65.20;;;;;;5112456;28;20488;-71
2021/05/27 03:33:54;;;;;;;4.28;1.60;;;10.80;65.70;;;;;;5112254;28;20043;-71
2021/05/27 03:36:21;;;;;;;9.45;2.53;;;10.80;65.50;;;;;;5113167;28;20556;-71
2021/05/27 03:38:47;;;;;;;;;;;10.80;65.70;;;;;;5113750;28;20061;-72
2021/05/27 03:41:13;;;;;;;6.50;2.25;;;10.80;64.50;;;;;;5115974;28;20433;-72
2021/05/27 03:43:39;;;;;;;5.93;1.95;;;10.80;65.30;;;;;;5117520;28;20563;-71
2021/05/27 03:46:06;;;;;;;10.15;2.50;;;10.80;65.40;;;;;;5117409;28;20093;-71
2021/05/27 03:48:32;;;;;;;7.78;2.20;;;10.80;65.40;;;;;;5117439;28;20357;-70
2021/05/27 03:50:58;;;;;;;6.68;1.95;;;10.80;65.50;;;;;;5117272;28;20503;-70
2021/05/27 03:53:24;;;;;;;;;;;10.80;65.50;;;;;;5116293;28;20573;-71
2021/05/27 03:55:50;;;;;;;13.95;1.70;;;10.80;64.30;;;;;;5116003;28;20320;-72
2021/05/27 04:01:02;;;;;;;4.50;1.30;;;10.80;64.40;;;;;;5117072;28;20287;-70
2021/05/27 04:05:37;;;;;;;;;;;10.80;65.30;;;;;;5117487;28;20042;-70
2021/05/27 04:09:01;;;;;;;5.00;1.60;;;10.80;65.30;;;;;;5116726;28;20511;-71
2021/05/27 04:11:27;;;;;;;;;;;10.90;65.70;;;;;;5099202;28;20115;-71
2021/05/27 04:13:53;;;;;;;4.85;1.80;;;10.90;64.60;;;;;;5115592;28;19920;-71
2021/05/27 04:16:20;;;;;;;4.97;2.15;;;11.00;65.80;;;;;;5115570;28;20072;-71
2021/05/27 04:18:46;;;;;;;;;;;11.00;65.90;;;;;;5117430;28;20418;-70
2021/05/27 04:21:12;;;;;;;4.63;2.05;;;11.10;64.70;;;;;;5116672;28;19947;-71
2021/05/27 04:23:39;;;;;;;;;;;11.20;65.70;;;;;;5117210;28;20160;-71
2021/05/27 04:26:12;;;;;;;10.27;2.33;;;11.30;64.60;;;;;;5115357;28;19956;-70
2021/05/27 04:28:40;;;;;;;6.53;2.47;;;11.40;65.70;;;;;;5098367;28;20046;-71
2021/05/27 04:31:29;;;;;;;10.35;2.85;;;11.40;66.00;;;;;;5098224;28;20027;-70
2021/05/27 04:33:56;;;;;;;5.95;2.05;;;11.50;66.30;;;;;;5116520;28;20357;-71
2021/05/27 04:36:23;;;;;;;8.35;2.15;;;11.60;66.50;;;;;;5115083;28;20019;-71
2021/05/27 04:38:51;;;;;;;6.28;2.55;;;11.70;66.60;;;;;;5115080;28;20036;-71
2021/05/27 04:41:18;;;;;;;15.85;2.58;;;11.70;66.60;;;;;;5116233;28;20024;-72
2021/05/27 04:43:54;;;;;;;6.32;2.47;;;11.80;66.10;;;;;;5114920;28;20036;-71
2021/05/27 04:46:40;;;;;;;8.68;2.30;;;11.90;66.60;;;;;;5114465;28;20079;-72
2021/05/27 04:49:07;;;;;;;6.30;2.27;;;12.00;66.70;;;;;;5115089;28;20448;-71
2021/05/27 04:51:33;;;;;;;;;;;12.00;66.50;;;;;;5115332;28;20032;-71
2021/05/27 04:54:00;;;;;;;13.15;4.25;;;12.10;66.10;;;;;;5097952;28;19919;-70
2021/05/27 04:56:26;;;;;;;14.73;4.40;;;12.10;66.40;;;;;;5114507;28;20031;-71
2021/05/27 04:58:54;;;;;;;12.55;5.13;;;12.20;66.50;;;;;;5114808;28;20040;-71
2021/05/27 05:01:22;;;;;;;8.55;4.60;;;12.20;66.70;;;;;;5114711;28;20506;-71
2021/05/27 05:06:23;;;;;;;9.77;5.47;;;12.40;67.10;;;;;;5116006;28;20027;-71
2021/05/27 05:08:49;;;;;;;11.73;5.60;;;12.40;67.10;;;;;;5115732;28;20535;-72
2021/05/27 05:11:16;;;;;;;12.52;6.38;;;12.40;67.30;;;;;;5115743;28;20484;-71
2021/05/27 05:13:43;;;;;;;22.02;10.02;;;12.40;67.50;;;;;;5115787;28;20043;-72
2021/05/27 05:16:09;;;;;;;;;;;12.50;67.70;;;;;;5116153;28;20043;-71
2021/05/27 05:18:35;;;;;;;23.10;10.45;;;12.60;67.10;;;;;;5114292;28;20015;-71
2021/05/27 05:21:01;;;;;;;28.23;12.90;;;12.60;67.30;;;;;;5115544;28;20059;-71
2021/05/27 05:23:27;;;;;;;23.40;11.48;;;12.70;67.50;;;;;;5114080;28;20043;-71
2021/05/27 05:25:53;;;;;;;16.08;7.65;;;12.70;67.60;;;;;;5114275;28;20526;-72
2021/05/27 05:28:20;;;;;;;12.98;6.25;;;12.90;67.60;;;;;;5114110;28;20043;-71
2021/05/27 05:30:46;;;;;;;13.07;6.00;;;12.90;66.80;;;;;;5115373;28;20425;-71
2021/05/27 05:33:12;;;;;;;13.02;5.53;;;13.10;68.00;;;;;;5115120;28;20031;-71
2021/05/27 05:35:39;;;;;;;9.82;4.70;;;13.10;67.70;;;;;;5115374;28;20032;-71
2021/05/27 05:38:05;;;;;;;8.48;3.80;;;13.20;67.00;;;;;;5096764;28;20038;-72
2021/05/27 05:40:33;;;;;;;11.43;4.10;;;13.40;67.70;;;;;;5096987;28;20484;-71
2021/05/27 05:42:59;;;;;;;9.80;3.40;;;13.50;67.30;;;;;;5113722;28;20059;-72
2021/05/27 05:45:27;;;;;;;;;;;13.60;67.20;;;;;;5114404;28;20032;-71
2021/05/27 05:47:53;;;;;;;7.85;3.50;;;13.70;66.40;;;;;;5113815;28;19956;-71
2021/05/27 05:53:07;;;;;;;6.22;3.05;;;13.90;66.10;;;;;;5114786;28;20413;-71
2021/05/27 05:55:34;;;;;;;8.52;3.78;;;14.00;66.20;;;;;;5113642;28;20047;-71
2021/05/27 05:58:02;;;;;;;8.00;3.03;;;14.20;66.60;;;;;;5113435;28;20114;-71
2021/05/27 06:00:29;;;;;;;7.20;3.60;;;14.30;66.70;;;;;;5114732;28;20023;-72
2021/05/27 06:02:55;;;;;;;11.05;3.42;;;14.40;66.30;;;;;;5112863;28;20102;-72
2021/05/27 06:05:21;;;;;;;;;;;14.50;66.50;;;;;;5115628;27;20483;-70
2021/05/27 06:07:47;;;;;;;7.93;2.97;;;14.60;65.30;;;;;;5113248;28;19916;-71
2021/05/27 06:10:13;;;;;;;7.15;3.28;;;14.80;66.00;;;;;;5115013;28;20046;-71
2021/05/27 06:12:39;;;;;;;;;;;14.80;66.00;;;;;;5113923;28;20027;-72
2021/05/27 06:15:25;;;;;;;6.60;2.95;;;14.90;65.20;;;;;;5114803;28;19920;-71
2021/05/27 06:17:52;;;;;;;11.55;2.50;;;15.10;65.50;;;;;;5113301;28;20055;-72
2021/05/27 06:20:20;;;;;;;14.32;7.32;;;15.20;64.90;;;;;;5113242;28;20047;-72
2021/05/27 06:23:06;;;;;;;10.23;4.53;;;15.40;65.00;;;;;;5114292;28;20028;-71
2021/05/27 06:25:33;;;;;;;5.78;2.92;;;15.50;65.20;;;;;;5114355;27;20395;-71
2021/05/27 06:28:00;;;;;;;11.30;2.78;;;15.70;64.80;;;;;;5114079;28;20066;-73
2021/05/27 06:30:28;;;;;;;7.55;2.35;;;15.80;64.30;;;;;;5112888;28;20027;-72
2021/05/27 06:32:55;;;;;;;8.35;2.10;;;15.80;63.70;;;;;;5114138;28;20032;-71
2021/05/27 06:35:22;;;;;;;7.55;2.58;;;16.00;63.70;;;;;;5113042;28;20040;-71
2021/05/27 06:37:49;;;;;;;5.85;2.30;;;16.10;63.40;;;;;;5112818;28;20028;-71
2021/05/27 06:40:33;;;;;;;8.98;2.45;;;16.30;63.30;;;;;;5095836;28;20122;-71
2021/05/27 06:43:00;;;;;;;7.53;2.53;;;16.40;63.30;;;;;;5112634;28;20050;-71
2021/05/27 06:45:26;;;;;;;;;;;16.50;63.30;;;;;;5113097;28;20019;-71
2021/05/27 06:47:52;;;;;;;5.28;2.10;;;16.60;62.20;;;;;;5113895;28;20367;-71
2021/05/27 06:50:37;;;;;;;5.45;1.92;;;16.70;62.10;;;;;;5112626;28;20055;-72
2021/05/27 06:53:21;;;;;;;11.30;2.10;;;16.70;60.90;;;;;;5097670;28;20028;-71
2021/05/27 06:55:48;;;;;;;7.00;2.05;;;16.90;61.30;;;;;;5112518;28;20540;-72
2021/05/27 06:58:17;;;;;;;7.53;2.15;;;17.10;60.80;;;;;;5112373;28;20031;-71
2021/05/27 07:00:43;;;;;;;7.18;2.30;;;17.20;60.30;;;;;;5112517;28;20020;-71
2021/05/27 07:03:11;;;;;;;8.18;1.80;;;17.40;59.80;;;;;;5112158;28;20032;-71
2021/05/27 07:05:38;;;;;;;10.07;2.10;;;17.60;59.50;;;;;;5112289;28;20023;-72
2021/05/27 07:08:06;;;;;;;6.95;2.00;;;17.70;59.30;;;;;;5113205;28;20048;-71
2021/05/27 07:10:33;;;;;;;5.93;2.17;;;18.00;58.90;;;;;;5112309;28;20030;-72
2021/05/27 07:13:20;;;;;;;6.00;1.98;;;18.10;58.80;;;;;;5095105;28;20118;-71
2021/05/27 07:15:46;;;;;;;6.65;1.88;;;18.30;58.20;;;;;;5112974;28;20062;-72
2021/05/27 07:18:12;;;;;;;;;;;18.40;57.60;;;;;;5112568;28;20028;-71
2021/05/27 07:20:39;;;;;;;7.93;2.53;;;18.50;57.60;;;;;;5095196;28;19916;-72
2021/05/27 07:23:05;;;;;;;5.00;1.70;;;18.60;56.90;;;;;;5111752;28;20414;-72
2021/05/27 07:25:31;;;;;;;9.40;2.72;;;18.70;56.60;;;;;;5112126;28;20055;-72
2021/05/27 07:27:57;;;;;;;;;;;18.80;56.00;;;;;;5112426;28;20038;-71
2021/05/27 07:30:26;;;;;;;5.60;1.88;;;18.90;56.00;;;;;;5111934;28;20428;-71
2021/05/27 07:32:54;;;;;;;6.05;2.10;;;18.90;55.70;;;;;;5112078;28;20492;-71
2021/05/27 07:35:20;;;;;;;7.60;2.53;;;19.00;55.80;;;;;;5113549;28;20031;-71
2021/05/27 07:37:46;;;;;;;5.40;1.92;;;19.20;55.70;;;;;;5111981;28;20395;-72
2021/05/27 07:40:13;;;;;;;;;;;19.30;55.10;;;;;;5112510;28;20040;-71
2021/05/27 07:42:39;;;;;;;7.72;2.47;;;19.40;55.10;;;;;;5113134;28;19961;-71
2021/05/27 07:45:07;;;;;;;4.68;1.80;;;19.50;54.50;;;;;;5112027;28;20495;-71
2021/05/27 07:47:34;;;;;;;8.98;2.70;;;19.50;53.90;;;;;;5113092;28;20049;-71
2021/05/27 07:50:03;;;;;;;4.70;1.75;;;19.60;52.80;;;;;;5113483;28;20039;-71
2021/05/27 07:52:29;;;;;;;9.27;1.85;;;19.60;52.60;;;;;;5113081;28;20092;-71
2021/05/27 07:54:56;;;;;;;5.78;1.85;;;19.70;51.30;;;;;;5111921;28;20051;-71
2021/05/27 07:57:23;;;;;;;5.65;1.73;;;19.70;51.10;;;;;;5094686;28;20039;-71
2021/05/27 07:59:49;;;;;;;5.20;1.75;;;19.80;50.40;;;;;;5113224;28;20058;-71
2021/05/27 08:02:15;;;;;;;;;;;19.90;50.70;;;;;;5112304;28;20028;-71
2021/05/27 08:04:42;;;;;;;5.43;1.75;;;19.90;50.50;;;;;;5113147;28;19916;-71
2021/05/27 08:07:27;;;;;;;5.43;1.92;;;20.00;50.90;;;;;;5111599;28;20031;-72
2021/05/27 08:09:53;;;;;;;8.38;1.90;;;20.10;50.20;;;;;;5111811;28;20391;-73
2021/05/27 08:12:19;;;;;;;;;;;20.20;50.50;;;;;;5112146;28;20059;-71
2021/05/27 08:14:45;;;;;;;6.15;1.65;;;20.30;50.30;;;;;;5111715;28;19920;-71
2021/05/27 08:17:12;;;;;;;5.15;2.05;;;20.40;49.80;;;;;;5112750;28;20024;-71
2021/05/27 08:19:38;;;;;;;5.25;1.80;;;20.50;49.80;;;;;;5113038;28;20050;-71
2021/05/27 08:22:05;;;;;;;6.70;2.20;;;20.50;49.50;;;;;;5111567;28;20036;-71
2021/05/27 08:24:32;;;;;;;7.28;2.30;;;20.60;49.70;;;;;;5111492;28;20446;-71
2021/05/27 08:26:58;;;;;;;7.18;3.22;;;20.70;49.80;;;;;;5116301;28;20544;-71
2021/05/27 08:29:24;;;;;;;10.73;2.30;;;20.80;49.60;;;;;;5116800;28;20047;-71
2021/05/27 08:31:51;;;;;;;9.60;2.33;;;20.90;50.00;;;;;;5116577;28;20505;-71
2021/05/27 08:34:19;;;;;;;;;;;21.00;48.40;;;;;;5115811;28;20142;-71
2021/05/27 08:36:45;;;;;;;7.50;2.33;;;21.10;48.40;;;;;;5116436;27;19921;-71
2021/05/27 08:39:12;;;;;;;5.70;2.15;;;21.30;48.40;;;;;;5115113;28;20035;-71
2021/05/27 08:41:38;;;;;;;6.18;2.33;;;21.30;48.00;;;;;;5115196;28;20036;-71
2021/05/27 08:44:05;;;;;;;6.88;2.05;;;21.40;46.80;;;;;;5116301;28;20050;-71
2021/05/27 08:46:32;;;;;;;5.55;1.63;;;21.40;46.50;;;;;;5115092;28;20479;-71
2021/05/27 08:49:00;;;;;;;4.60;1.80;;;21.50;46.70;;;;;;5115005;28;20496;-71
2021/05/27 08:51:29;;;;;;;6.32;1.83;;;21.60;46.50;;;;;;5114984;28;20438;-71
2021/05/27 08:53:56;;;;;;;5.25;1.80;;;21.80;47.00;;;;;;5116194;28;20046;-72
2021/05/27 08:56:22;;;;;;;9.52;2.35;;;22.10;47.10;;;;;;5115124;28;20032;-72
2021/05/27 08:58:48;;;;;;;5.60;2.20;;;22.40;46.30;;;;;;5114688;28;20046;-71
2021/05/27 09:01:19;;;;;;;4.68;1.77;;;22.80;45.50;;;;;;5115914;28;20036;-71
2021/05/27 09:03:46;;;;;;;4.50;1.80;;;23.40;43.60;;;;;;5115916;28;20032;-73
2021/05/27 09:06:13;;;;;;;7.45;1.80;;;24.10;42.50;;;;;;5114518;28;20032;-72
2021/05/27 09:08:39;;;;;;;4.72;1.80;;;24.80;40.40;;;;;;5114444;28;20051;-72
2021/05/27 09:11:24;;;;;;;8.75;1.80;;;25.50;39.00;;;;;;5114493;28;20024;-72
2021/05/27 09:14:10;;;;;;;6.60;2.30;;;26.10;38.40;;;;;;5114543;28;20044;-72
2021/05/27 09:16:38;;;;;;;8.20;2.15;;;26.80;37.30;;;;;;5115837;28;20047;-71
2021/05/27 09:19:15;;;;;;;5.07;2.03;;;27.50;35.90;;;;;;5114393;28;20337;-72
2021/05/27 09:21:42;;;;;;;;;;;28.00;35.10;;;;;;5114983;28;20069;-72
2021/05/27 09:24:09;;;;;;;5.35;1.88;;;28.80;35.60;;;;;;5115293;28;19916;-73
2021/05/27 09:26:56;;;;;;;5.90;1.77;;;29.50;32.60;;;;;;5114323;28;20449;-72
2021/05/27 09:29:23;;;;;;;4.90;2.10;;;30.20;32.90;;;;;;5114312;28;20036;-72
2021/05/27 09:32:08;;;;;;;4.72;1.88;;;30.90;30.60;;;;;;5114261;28;20027;-72
2021/05/27 09:34:54;;;;;;;6.80;1.70;;;31.50;30.20;;;;;;5096983;28;20027;-72
2021/05/27 09:37:29;;;;;;;5.43;2.00;;;32.00;29.60;;;;;;5113078;28;20043;-72
2021/05/27 09:40:16;;;;;;;5.00;1.83;;;32.70;27.80;;;;;;5114249;28;20036;-72
2021/05/27 09:42:49;;;;;;;12.77;3.30;;;33.40;27.00;;;;;;5115051;28;20077;-72
2021/05/27 09:45:17;;;;;;;6.80;3.20;;;34.00;25.60;;;;;;5113996;28;20111;-72
2021/05/27 09:47:44;;;;;;;7.97;2.65;;;34.50;24.50;;;;;;5115140;28;20023;-72
2021/05/27 09:50:11;;;;;;;11.45;2.60;;;35.00;24.60;;;;;;5113804;28;20039;-73
2021/05/27 09:53:11;;;;;;;5.95;2.30;;;35.70;24.00;;;;;;5113729;28;20042;-72
2021/05/27 09:55:38;;;;;;;5.75;2.10;;;36.60;24.20;;;;;;5096744;28;20126;-72
2021/05/27 09:58:23;;;;;;;5.38;2.10;;;37.30;22.60;;;;;;5113499;28;20036;-72
2021/05/27 10:00:52;;;;;;;4.68;2.00;;;37.90;22.70;;;;;;5113625;28;20031;-73
2021/05/27 10:03:40;;;;;;;5.30;2.45;;;38.50;21.30;;;;;;5114521;27;20130;-73
2021/05/27 10:06:31;;;;;;;5.63;1.80;;;38.90;20.70;;;;;;5096601;28;20492;-72
2021/05/27 10:08:57;;;;;;;5.25;1.77;;;39.50;21.00;;;;;;5113380;28;20119;-73
2021/05/27 10:11:26;;;;;;;4.75;2.40;;;40.00;19.80;;;;;;5114559;28;20364;-72
2021/05/27 10:13:53;;;;;;;4.18;1.92;;;40.50;18.70;;;;;;5113325;28;20468;-72
2021/05/27 10:16:25;;;;;;;4.53;1.80;;;40.90;18.20;;;;;;5113238;28;20047;-73
2021/05/27 10:18:57;;;;;;;4.47;2.10;;;41.40;18.10;;;;;;5114562;27;20044;-73
2021/05/27 10:21:25;;;;;;;12.85;2.95;;;41.70;17.80;;;;;;5113210;28;20106;-73
2021/05/27 10:24:12;;;;;;;8.18;2.17;;;42.10;17.50;;;;;;5113069;28;20097;-73
2021/05/27 10:26:38;;;;;;;3.78;1.70;;;42.40;17.80;;;;;;5113095;28;20368;-73
2021/05/27 10:29:05;;;;;;;6.60;1.77;;;43.00;16.40;;;;;;5095911;28;20475;-73
2021/05/27 10:31:37;;;;;;;11.60;2.10;;;43.40;16.20;;;;;;5113041;28;20031;-73
2021/05/27 10:34:05;;;;;;;5.15;2.00;;;43.70;16.00;;;;;;5112973;28;20039;-73
2021/05/27 10:36:50;;;;;;;5.40;2.20;;;44.10;16.20;;;;;;5096134;28;20074;-73
2021/05/27 10:39:36;;;;;;;6.83;2.13;;;44.20;16.30;;;;;;5112836;28;20108;-73
2021/05/27 10:42:03;;;;;;;6.90;2.28;;;44.70;16.10;;;;;;5113950;28;20023;-73
2021/05/27 10:44:29;;;;;;;3.33;1.67;;;45.00;15.40;;;;;;5112678;28;20039;-74
2021/05/27 10:46:55;;;;;;;7.00;2.15;;;45.10;15.10;;;;;;5113126;28;20495;-73
2021/05/27 10:49:41;;;;;;;4.53;2.20;;;45.60;15.20;;;;;;5113918;27;20043;-73
2021/05/27 10:52:44;;;;;;;4.78;1.90;;;45.70;14.00;;;;;;5113805;28;20031;-73
2021/05/27 10:55:53;;;;;;;3.08;1.60;;;45.70;14.00;;;;;;5114220;28;20106;-74
2021/05/27 10:58:19;;;;;;;5.60;2.08;;;46.10;14.20;;;;;;5095391;28;20046;-73
2021/05/27 11:00:47;;;;;;;3.03;1.65;;;46.50;13.40;;;;;;5095482;28;20475;-73
2021/05/27 11:03:53;;;;;;;5.70;1.67;;;46.60;12.30;;;;;;5112213;28;20032;-73
2021/05/27 11:06:39;;;;;;;7.35;2.20;;;46.90;13.40;;;;;;5112390;28;20027;-73
2021/05/27 11:09:42;;;;;;;8.50;2.10;;;47.10;13.50;;;;;;5112148;28;20047;-73
2021/05/27 11:12:10;;;;;;;7.78;2.60;;;47.40;13.20;;;;;;5095219;28;20077;-74
2021/05/27 11:17:25;;;;;;;4.18;2.13;;;47.80;12.30;;;;;;5113444;28;20027;-73
2021/05/27 11:23:20;;;;;;;5.10;2.38;;;47.90;12.30;;;;;;5113235;28;20054;-73
2021/05/27 11:25:46;;;;;;;5.03;2.00;;;48.20;12.80;;;;;;5113300;28;20024;-73
2021/05/27 11:28:13;;;;;;;6.82;2.72;;;48.40;12.30;;;;;;5113112;28;20438;-73
2021/05/27 11:30:40;;;;;;;4.95;2.03;;;48.70;12.40;;;;;;5113317;28;20032;-72
2021/05/27 11:33:18;;;;;;;4.05;2.20;;;48.90;11.90;;;;;;5112974;28;20039;-73
2021/05/27 11:35:48;;;;;;;5.00;2.33;;;49.40;11.80;;;;;;5113206;28;20046;-73
2021/05/27 11:38:33;;;;;;;5.88;2.35;;;49.70;11.50;;;;;;5111867;28;20051;-73
2021/05/27 11:41:02;;;;;;;;;;;49.90;11.80;;;;;;5113758;28;20529;-74
2021/05/27 11:43:42;;;;;;;4.80;2.80;;;49.80;12.30;;;;;;5094829;28;19926;-73
2021/05/27 11:46:30;;;;;;;7.05;2.33;;;48.10;12.20;;;;;;5111841;28;20030;-74
2021/05/27 11:48:58;;;;;;;3.88;2.17;;;47.00;13.00;;;;;;5113208;28;20388;-73
2021/05/27 11:51:43;;;;;;;4.15;2.42;;;46.30;12.50;;;;;;5094980;28;20487;-73
2021/05/27 11:54:11;;;;;;;5.15;2.33;;;46.00;13.60;;;;;;5094686;28;20075;-73
2021/05/27 11:56:55;;;;;;;7.15;2.38;;;47.10;12.70;;;;;;5111796;28;20035;-73
2021/05/27 11:59:26;;;;;;;4.82;2.30;;;48.10;12.80;;;;;;5113163;28;20056;-73
2021/05/27 12:02:11;;;;;;;5.72;2.25;;;48.70;11.90;;;;;;5115060;28;20046;-73
2021/05/27 12:04:37;;;;;;;3.90;2.20;;;48.90;12.10;;;;;;5117241;28;20039;-73
2021/05/27 12:07:22;;;;;;;8.57;2.90;;;49.50;11.90;;;;;;5117013;28;20031;-73
2021/05/27 12:09:49;;;;;;;5.47;2.50;;;49.60;11.70;;;;;;5115506;28;20039;-73
2021/05/27 12:12:36;;;;;;;5.40;2.20;;;49.80;11.50;;;;;;5116869;28;20042;-74
2021/05/27 12:15:22;;;;;;;4.20;2.50;;;49.70;11.60;;;;;;5115653;28;20122;-73
2021/05/27 12:17:52;;;;;;;6.25;2.60;;;49.90;11.00;;;;;;5098654;28;20081;-73
2021/05/27 12:20:36;;;;;;;5.85;2.70;;;50.20;11.20;;;;;;5115717;28;20035;-73
2021/05/27 12:23:23;;;;;;;12.00;2.47;;;50.10;11.40;;;;;;5116583;28;20085;-73
2021/05/27 12:25:52;;;;;;;5.13;2.30;;;50.30;11.50;;;;;;5116756;27;20553;-72
2021/05/27 12:28:26;;;;;;;6.57;2.65;;;49.80;10.90;;;;;;5115286;28;20471;-73
2021/05/27 12:30:52;;;;;;;4.50;2.60;;;48.60;11.40;;;;;;5116692;28;20039;-73
2021/05/27 12:33:28;;;;;;;4.32;1.90;;;48.40;11.80;;;;;;5116458;28;20052;-72
2021/05/27 12:35:56;;;;;;;5.55;2.30;;;46.70;12.30;;;;;;5098201;28;20031;-73
2021/05/27 12:38:43;;;;;;;5.72;2.15;;;45.00;13.40;;;;;;5116385;28;20067;-73
2021/05/27 12:41:10;;;;;;;4.47;2.17;;;43.80;13.40;;;;;;5115142;28;20149;-73
2021/05/27 12:43:58;;;;;;;4.03;1.73;;;43.90;14.00;;;;;;5116291;28;20035;-73
2021/05/27 12:46:42;;;;;;;4.35;2.17;;;45.00;13.40;;;;;;5116342;28;20036;-73
2021/05/27 12:49:09;;;;;;;5.30;2.10;;;46.10;12.60;;;;;;5116402;28;20035;-73
2021/05/27 12:51:53;;;;;;;5.75;2.22;;;47.00;12.40;;;;;;5115107;28;20484;-73
2021/05/27 12:54:38;;;;;;;4.43;2.00;;;47.30;12.30;;;;;;5116307;28;20107;-72
2021/05/27 12:57:24;;;;;;;6.40;1.90;;;47.70;11.60;;;;;;5097720;28;20135;-72
2021/05/27 12:59:57;;;;;;;4.53;2.30;;;48.10;11.70;;;;;;5115965;28;20039;-73
2021/05/27 13:02:26;;;;;;;5.95;2.58;;;48.40;11.70;;;;;;5097752;28;20388;-72
2021/05/27 13:04:52;;;;;;;5.20;2.38;;;48.00;12.00;;;;;;5114700;28;20115;-73
2021/05/27 13:07:19;;;;;;;6.72;2.35;;;47.40;11.70;;;;;;5114624;28;20024;-73
2021/05/27 13:10:04;;;;;;;7.40;2.50;;;47.50;12.10;;;;;;5116034;28;20063;-73
2021/05/27 13:12:46;;;;;;;3.55;2.03;;;48.00;12.30;;;;;;5114489;28;20066;-72
2021/05/27 13:15:14;;;;;;;9.52;1.98;;;48.10;11.80;;;;;;5116079;28;20059;-73
2021/05/27 13:17:41;;;;;;;4.03;1.88;;;47.90;11.60;;;;;;5115756;27;20027;-73
2021/05/27 13:20:08;;;;;;;3.00;1.83;;;47.90;11.50;;;;;;5114472;28;20498;-73
2021/05/27 13:22:34;;;;;;;8.50;1.88;;;48.00;11.30;;;;;;5114409;28;20040;-73
2021/05/27 13:25:19;;;;;;;6.53;2.15;;;47.90;11.30;;;;;;5114329;28;20040;-72
2021/05/27 13:27:49;;;;;;;7.43;1.77;;;47.30;11.20;;;;;;5114446;28;20077;-73
2021/05/27 13:30:37;;;;;;;11.30;2.30;;;47.00;11.50;;;;;;5114384;28;20035;-72